sensor_id;sensor_type;location;lat;lon;timestamp;pressure;altitude;pressure_sealevel;temperature;humidity
14343;BME280;7255;53.596;9.960;2023-06-22T00:00:49;101764.53;;;18.39;100.00
14343;BME280;7255;53.596;9.960;2023-06-22T00:03:17;101767.00;;;18.40;100.00
14343;BME280;7255;53.596;9.960;2023-06-22T00:05:44;101770.13;;;18.49;100.00
14343;BME280;7255;53.596;9.960;2023-06-22T00:08:11;101766.81;;;18.47;100.00
14343;BME280;7255;53.596;9.960;2023-06-22T00:10:37;101763.41;;;18.35;100.00
14343;BME280;7255;53.596;9.960;2023-06-22T00:13:04;101758.16;;;18.28;100.00
14343;BME280;7255;53.596;9.960;2023-06-22T00:15:32;101755.84;;;18.20;100.00
14343;BME280;7255;53.596;9.960;2023-06-22T00:17:58;101756.66;;;18.20;100.00
14343;BME280;7255;53.596;9.960;2023-06-22T00:20:25;101751.06;;;18.27;100.00
14343;BME280;7255;53.596;9.960;2023-06-22T00:22:53;101753.38;;;18.18;100.00
14343;BME280;7255;53.596;9.960;2023-06-22T00:25:19;101756.34;;;18.17;100.00
14343;BME280;7255;53.596;9.960;2023-06-22T00:27:45;101755.22;;;18.13;100.00
14343;BME280;7255;53.596;9.960;2023-06-22T00:30:13;101755.53;;;18.16;100.00
14343;BME280;7255;53.596;9.960;2023-06-22T00:32:40;101767.53;;;18.20;100.00
14343;BME280;7255;53.596;9.960;2023-06-22T00:35:07;101765.72;;;18.26;100.00
14343;BME280;7255;53.596;9.960;2023-06-22T00:37:34;101771.47;;;18.30;100.00
14343;BME280;7255;53.596;9.960;2023-06-22T00:40:01;101769.34;;;18.32;100.00
14343;BME280;7255;53.596;9.960;2023-06-22T00:42:27;101780.84;;;18.39;100.00
14343;BME280;7255;53.596;9.960;2023-06-22T00:44:54;101773.72;;;18.55;100.00
14343;BME280;7255;53.596;9.960;2023-06-22T00:47:21;101772.41;;;18.57;100.00
14343;BME280;7255;53.596;9.960;2023-06-22T00:49:49;101775.56;;;18.49;100.00
14343;BME280;7255;53.596;9.960;2023-06-22T00:52:17;101783.97;;;18.47;100.00
14343;BME280;7255;53.596;9.960;2023-06-22T00:54:46;101781.00;;;18.49;100.00
14343;BME280;7255;53.596;9.960;2023-06-22T00:57:14;101778.84;;;18.51;100.00
14343;BME280;7255;53.596;9.960;2023-06-22T00:59:42;101771.44;;;18.46;100.00
14343;BME280;7255;53.596;9.960;2023-06-22T01:02:08;101780.34;;;18.42;100.00
14343;BME280;7255;53.596;9.960;2023-06-22T01:04:36;101787.78;;;18.46;100.00
14343;BME280;7255;53.596;9.960;2023-06-22T01:07:10;101777.38;;;18.43;100.00
14343;BME280;7255;53.596;9.960;2023-06-22T01:09:45;101782.66;;;18.50;100.00
14343;BME280;7255;53.596;9.960;2023-06-22T01:12:16;101780.50;;;18.52;100.00
14343;BME280;7255;53.596;9.960;2023-06-22T01:14:53;101772.59;;;18.51;100.00
14343;BME280;7255;53.596;9.960;2023-06-22T01:17:22;101776.00;;;18.41;100.00
14343;BME280;7255;53.596;9.960;2023-06-22T01:19:50;101774.78;;;18.32;100.00
14343;BME280;7255;53.596;9.960;2023-06-22T01:22:24;101769.03;;;18.28;100.00
14343;BME280;7255;53.596;9.960;2023-06-22T01:24:57;101777.75;;;18.30;100.00
14343;BME280;7255;53.596;9.960;2023-06-22T01:27:32;101774.91;;;18.42;100.00
14343;BME280;7255;53.596;9.960;2023-06-22T01:30:05;101772.97;;;18.37;100.00
14343;BME280;7255;53.596;9.960;2023-06-22T01:32:34;101772.31;;;18.30;100.00
14343;BME280;7255;53.596;9.960;2023-06-22T01:35:03;101767.19;;;18.34;100.00
14343;BME280;7255;53.596;9.960;2023-06-22T01:37:32;101770.16;;;18.32;100.00
14343;BME280;7255;53.596;9.960;2023-06-22T01:40:00;101764.56;;;18.22;100.00
14343;BME280;7255;53.596;9.960;2023-06-22T01:42:27;101759.13;;;18.22;100.00
14343;BME280;7255;53.596;9.960;2023-06-22T01:44:53;101755.84;;;18.20;100.00
14343;BME280;7255;53.596;9.960;2023-06-22T01:47:23;101763.59;;;18.28;100.00
14343;BME280;7255;53.596;9.960;2023-06-22T01:49:51;101767.88;;;18.24;100.00
14343;BME280;7255;53.596;9.960;2023-06-22T01:52:18;101770.53;;;18.19;100.00
14343;BME280;7255;53.596;9.960;2023-06-22T01:54:46;101772.16;;;18.20;100.00
14343;BME280;7255;53.596;9.960;2023-06-22T01:57:12;101764.56;;;18.22;100.00
14343;BME280;7255;53.596;9.960;2023-06-22T01:59:47;101756.66;;;18.20;100.00
14343;BME280;7255;53.596;9.960;2023-06-22T02:02:17;101767.06;;;18.23;100.00
14343;BME280;7255;53.596;9.960;2023-06-22T02:04:54;101767.88;;;18.24;100.00
14343;BME280;7255;53.596;9.960;2023-06-22T02:07:23;101761.44;;;18.30;100.00
14343;BME280;7255;53.596;9.960;2023-06-22T02:09:51;101764.81;;;18.20;100.00
14343;BME280;7255;53.596;9.960;2023-06-22T02:12:22;101765.59;;;18.16;100.00
14343;BME280;7255;53.596;9.960;2023-06-22T02:14:52;101763.44;;;18.18;100.00
14343;BME280;7255;53.596;9.960;2023-06-22T02:17:19;101771.03;;;18.16;100.00
14343;BME280;7255;53.596;9.960;2023-06-22T02:19:47;101765.44;;;18.05;100.00
14343;BME280;7255;53.596;9.960;2023-06-22T02:22:13;101762.63;;;18.00;100.00
14343;BME280;7255;53.596;9.960;2023-06-22T02:24:40;101763.66;;;17.94;100.00
14343;BME280;7255;53.596;9.960;2023-06-22T02:27:06;101766.94;;;17.96;100.00
14343;BME280;7255;53.596;9.960;2023-06-22T02:29:33;101758.53;;;17.98;100.00
14343;BME280;7255;53.596;9.960;2023-06-22T02:31:59;101758.53;;;17.98;100.00
14343;BME280;7255;53.596;9.960;2023-06-22T02:34:25;101756.69;;;18.03;100.00
14343;BME280;7255;53.596;9.960;2023-06-22T02:36:53;101749.63;;;18.02;100.00
14343;BME280;7255;53.596;9.960;2023-06-22T02:39:20;101743.03;;;17.98;100.00
14343;BME280;7255;53.596;9.960;2023-06-22T02:41:47;101745.66;;;17.93;100.00
14343;BME280;7255;53.596;9.960;2023-06-22T02:44:14;101738.41;;;17.82;100.00
14343;BME280;7255;53.596;9.960;2023-06-22T02:46:40;101748.63;;;17.75;100.00
14343;BME280;7255;53.596;9.960;2023-06-22T02:49:06;101751.28;;;17.69;100.00
14343;BME280;7255;53.596;9.960;2023-06-22T02:51:33;101759.69;;;17.68;100.00
14343;BME280;7255;53.596;9.960;2023-06-22T02:54:02;101750.28;;;17.59;100.00
14343;BME280;7255;53.596;9.960;2023-06-22T02:56:28;101748.16;;;17.61;100.00
14343;BME280;7255;53.596;9.960;2023-06-22T02:58:55;101741.91;;;17.60;100.00
14343;BME280;7255;53.596;9.960;2023-06-22T03:01:26;101754.06;;;17.58;100.00
14343;BME280;7255;53.596;9.960;2023-06-22T03:03:52;101755.06;;;17.51;100.00
14343;BME280;7255;53.596;9.960;2023-06-22T03:06:19;101762.13;;;17.52;100.00
14343;BME280;7255;53.596;9.960;2023-06-22T03:08:48;101754.72;;;17.48;100.00
14343;BME280;7255;53.596;9.960;2023-06-22T03:11:15;101748.63;;;17.41;100.00
14343;BME280;7255;53.596;9.960;2023-06-22T03:13:42;101751.91;;;17.43;100.00
14343;BME280;7255;53.596;9.960;2023-06-22T03:16:09;101754.53;;;17.38;100.00
14343;BME280;7255;53.596;9.960;2023-06-22T03:18:35;101753.72;;;17.37;100.00
14343;BME280;7255;53.596;9.960;2023-06-22T03:21:01;101766.75;;;17.35;100.00
14343;BME280;7255;53.596;9.960;2023-06-22T03:23:28;101759.50;;;17.41;100.00
14343;BME280;7255;53.596;9.960;2023-06-22T03:25:54;101761.31;;;17.35;100.00
14343;BME280;7255;53.596;9.960;2023-06-22T03:28:23;101761.53;;;17.34;100.00
14343;BME280;7255;53.596;9.960;2023-06-22T03:30:49;101759.66;;;17.34;100.00
14343;BME280;7255;53.596;9.960;2023-06-22T03:33:15;101764.59;;;17.37;100.00
14343;BME280;7255;53.596;9.960;2023-06-22T03:35:41;101773.81;;;17.36;100.00
14343;BME280;7255;53.596;9.960;2023-06-22T03:38:08;101770.59;;;17.39;100.00
14343;BME280;7255;53.596;9.960;2023-06-22T03:40:34;101777.44;;;17.42;100.00
14343;BME280;7255;53.596;9.960;2023-06-22T03:43:00;101776.47;;;17.48;100.00
14343;BME280;7255;53.596;9.960;2023-06-22T03:45:28;101787.16;;;17.55;100.00
14343;BME280;7255;53.596;9.960;2023-06-22T03:47:54;101780.19;;;17.59;100.00
14343;BME280;7255;53.596;9.960;2023-06-22T03:50:21;101780.09;;;17.70;100.00
14343;BME280;7255;53.596;9.960;2023-06-22T03:52:47;101786.19;;;17.78;100.00
14343;BME280;7255;53.596;9.960;2023-06-22T03:55:13;101795.13;;;17.90;100.00
14343;BME280;7255;53.596;9.960;2023-06-22T03:57:40;101784.72;;;18.04;100.00
14343;BME280;7255;53.596;9.960;2023-06-22T04:00:07;101793.28;;;18.13;100.00
14343;BME280;7255;53.596;9.960;2023-06-22T04:02:36;101792.44;;;18.29;100.00
14343;BME280;7255;53.596;9.960;2023-06-22T04:05:03;101793.72;;;18.43;100.00
14343;BME280;7255;53.596;9.960;2023-06-22T04:07:29;101800.44;;;18.58;100.00
14343;BME280;7255;53.596;9.960;2023-06-22T04:09:55;101803.41;;;18.56;100.00
14343;BME280;7255;53.596;9.960;2023-06-22T04:12:22;101806.69;;;18.58;100.00
14343;BME280;7255;53.596;9.960;2023-06-22T04:14:48;101809.00;;;18.66;100.00
14343;BME280;7255;53.596;9.960;2023-06-22T04:17:14;101809.81;;;18.67;100.00
14343;BME280;7255;53.596;9.960;2023-06-22T04:19:44;101805.69;;;18.64;100.00
14343;BME280;7255;53.596;9.960;2023-06-22T04:22:10;101808.28;;;18.76;100.00
14343;BME280;7255;53.596;9.960;2023-06-22T04:24:37;101809.78;;;18.84;100.00
14343;BME280;7255;53.596;9.960;2023-06-22T04:27:04;101815.34;;;18.94;100.00
14343;BME280;7255;53.596;9.960;2023-06-22T04:29:30;101825.53;;;19.04;100.00
14343;BME280;7255;53.596;9.960;2023-06-22T04:31:57;101823.75;;;19.15;100.00
14343;BME280;7255;53.596;9.960;2023-06-22T04:34:30;101827.09;;;19.22;100.00
14343;BME280;7255;53.596;9.960;2023-06-22T04:36:58;101825.56;;;19.31;100.00
14343;BME280;7255;53.596;9.960;2023-06-22T04:39:24;101821.03;;;19.42;100.00
14343;BME280;7255;53.596;9.960;2023-06-22T04:41:52;101820.81;;;19.49;100.00
14343;BME280;7255;53.596;9.960;2023-06-22T04:44:18;101828.31;;;19.64;100.00
14343;BME280;7255;53.596;9.960;2023-06-22T04:46:50;101821.50;;;19.66;100.00
14343;BME280;7255;53.596;9.960;2023-06-22T04:49:19;101838.00;;;19.76;100.00
14343;BME280;7255;53.596;9.960;2023-06-22T04:51:46;101830.37;;;19.78;100.00
14343;BME280;7255;53.596;9.960;2023-06-22T04:54:13;101833.97;;;19.84;100.00
14343;BME280;7255;53.596;9.960;2023-06-22T04:56:40;101831.00;;;19.91;100.00
14343;BME280;7255;53.596;9.960;2023-06-22T04:59:06;101825.38;;;20.03;100.00
14343;BME280;7255;53.596;9.960;2023-06-22T05:01:33;101826.50;;;20.07;100.00
14343;BME280;7255;53.596;9.960;2023-06-22T05:04:00;101830.91;;;20.13;100.00
14343;BME280;7255;53.596;9.960;2023-06-22T05:06:27;101824.72;;;20.23;100.00
14343;BME280;7255;53.596;9.960;2023-06-22T05:08:54;101825.59;;;20.33;100.00
14343;BME280;7255;53.596;9.960;2023-06-22T05:11:24;101824.31;;;20.46;100.00
14343;BME280;7255;53.596;9.960;2023-06-22T05:13:50;101826.81;;;20.58;100.00
14343;BME280;7255;53.596;9.960;2023-06-22T05:16:17;101826.06;;;20.68;100.00
14343;BME280;7255;53.596;9.960;2023-06-22T05:18:50;101824.72;;;20.70;100.00
14343;BME280;7255;53.596;9.960;2023-06-22T05:21:17;101828.06;;;20.83;100.00
14343;BME280;7255;53.596;9.960;2023-06-22T05:23:44;101825.59;;;20.91;100.00
14343;BME280;7255;53.596;9.960;2023-06-22T05:26:10;101826.19;;;21.04;100.00
14343;BME280;7255;53.596;9.960;2023-06-22T05:28:38;101832.25;;;21.16;100.00
14343;BME280;7255;53.596;9.960;2023-06-22T05:31:04;101835.00;;;21.31;100.00
14343;BME280;7255;53.596;9.960;2023-06-22T05:33:30;101831.50;;;21.46;100.00
14343;BME280;7255;53.596;9.960;2023-06-22T05:35:56;101839.19;;;21.75;100.00
14343;BME280;7255;53.596;9.960;2023-06-22T05:38:23;101838.38;;;21.90;98.78
14343;BME280;7255;53.596;9.960;2023-06-22T05:40:49;101846.31;;;21.91;98.86
14343;BME280;7255;53.596;9.960;2023-06-22T05:43:15;101846.31;;;21.86;95.92
14343;BME280;7255;53.596;9.960;2023-06-22T05:45:43;101842.19;;;21.94;96.79
14343;BME280;7255;53.596;9.960;2023-06-22T05:48:09;101842.19;;;21.94;97.14
14343;BME280;7255;53.596;9.960;2023-06-22T05:50:36;101835.91;;;21.99;98.01
14343;BME280;7255;53.596;9.960;2023-06-22T05:53:03;101836.72;;;22.15;96.92
14343;BME280;7255;53.596;9.960;2023-06-22T05:55:29;101848.44;;;22.25;95.70
14343;BME280;7255;53.596;9.960;2023-06-22T05:57:55;101842.72;;;22.42;93.56
14343;BME280;7255;53.596;9.960;2023-06-22T06:00:22;101848.13;;;22.63;93.77
14343;BME280;7255;53.596;9.960;2023-06-22T06:02:50;101838.75;;;22.74;88.46
14343;BME280;7255;53.596;9.960;2023-06-22T06:05:16;101839.00;;;22.88;87.79
14343;BME280;7255;53.596;9.960;2023-06-22T06:07:45;101839.00;;;22.88;84.63
14343;BME280;7255;53.596;9.960;2023-06-22T06:10:12;101831.88;;;22.87;83.82
14343;BME280;7255;53.596;9.960;2023-06-22T06:12:38;101840.84;;;23.03;85.04
14343;BME280;7255;53.596;9.960;2023-06-22T06:15:05;101831.22;;;23.11;84.15
14343;BME280;7255;53.596;9.960;2023-06-22T06:17:31;101835.81;;;23.20;82.02
14343;BME280;7255;53.596;9.960;2023-06-22T06:20:01;101837.16;;;23.28;81.53
14343;BME280;7255;53.596;9.960;2023-06-22T06:22:29;101834.31;;;23.43;82.04
14343;BME280;7255;53.596;9.960;2023-06-22T06:24:55;101838.16;;;23.42;82.94
14343;BME280;7255;53.596;9.960;2023-06-22T06:27:22;101836.28;;;23.72;83.77
14343;BME280;7255;53.596;9.960;2023-06-22T06:29:54;101843.94;;;23.80;78.98
14343;BME280;7255;53.596;9.960;2023-06-22T06:32:20;101841.72;;;23.82;77.81
14343;BME280;7255;53.596;9.960;2023-06-22T06:34:46;101830.81;;;23.72;80.01
14343;BME280;7255;53.596;9.960;2023-06-22T06:37:14;101836.47;;;23.86;82.39
14343;BME280;7255;53.596;9.960;2023-06-22T06:39:41;101838.50;;;23.70;78.35
14343;BME280;7255;53.596;9.960;2023-06-22T06:42:07;101832.84;;;23.56;78.98
14343;BME280;7255;53.596;9.960;2023-06-22T06:44:34;101835.97;;;23.44;80.31
14343;BME280;7255;53.596;9.960;2023-06-22T06:47:03;101838.47;;;23.36;81.37
14343;BME280;7255;53.596;9.960;2023-06-22T06:49:29;101833.50;;;23.43;81.81
14343;BME280;7255;53.596;9.960;2023-06-22T06:51:55;101828.31;;;23.36;84.44
14343;BME280;7255;53.596;9.960;2023-06-22T06:54:23;101833.87;;;23.26;85.28
14343;BME280;7255;53.596;9.960;2023-06-22T06:56:49;101826.75;;;23.25;85.20
14343;BME280;7255;53.596;9.960;2023-06-22T06:59:16;101821.28;;;23.25;87.63
14343;BME280;7255;53.596;9.960;2023-06-22T07:01:42;101820.78;;;23.18;86.65
14343;BME280;7255;53.596;9.960;2023-06-22T07:04:09;101822.38;;;23.19;86.22
14343;BME280;7255;53.596;9.960;2023-06-22T07:06:36;101819.38;;;23.20;86.23
14343;BME280;7255;53.596;9.960;2023-06-22T07:09:02;101818.56;;;23.20;86.15
14343;BME280;7255;53.596;9.960;2023-06-22T07:11:30;101812.19;;;23.30;85.00
14343;BME280;7255;53.596;9.960;2023-06-22T07:13:57;101818.69;;;23.39;84.01
14343;BME280;7255;53.596;9.960;2023-06-22T07:16:23;101819.41;;;23.55;84.96
14343;BME280;7255;53.596;9.960;2023-06-22T07:18:50;101820.72;;;23.62;82.82
14343;BME280;7255;53.596;9.960;2023-06-22T07:21:17;101822.12;;;23.60;81.87
14343;BME280;7255;53.596;9.960;2023-06-22T07:23:43;101829.00;;;23.92;82.92
14343;BME280;7255;53.596;9.960;2023-06-22T07:26:09;101816.44;;;24.15;83.11
14343;BME280;7255;53.596;9.960;2023-06-22T07:28:39;101829.97;;;24.06;77.13
14343;BME280;7255;53.596;9.960;2023-06-22T07:31:06;101823.69;;;24.06;76.97
14343;BME280;7255;53.596;9.960;2023-06-22T07:33:32;101827.28;;;24.01;75.85
14343;BME280;7255;53.596;9.960;2023-06-22T07:35:58;101828.34;;;24.05;77.20
14343;BME280;7255;53.596;9.960;2023-06-22T07:38:25;101811.66;;;24.26;81.02
14343;BME280;7255;53.596;9.960;2023-06-22T07:40:51;101820.31;;;24.38;75.62
14343;BME280;7255;53.596;9.960;2023-06-22T07:43:18;101832.09;;;24.68;75.90
14343;BME280;7255;53.596;9.960;2023-06-22T07:45:49;101826.50;;;24.97;76.14
14343;BME280;7255;53.596;9.960;2023-06-22T07:48:20;101824.78;;;25.20;71.20
14343;BME280;7255;53.596;9.960;2023-06-22T07:50:46;101828.75;;;25.52;68.11
14343;BME280;7255;53.596;9.960;2023-06-22T07:53:12;101836.91;;;25.90;68.29
14343;BME280;7255;53.596;9.960;2023-06-22T07:55:38;101841.25;;;25.96;62.90
14343;BME280;7255;53.596;9.960;2023-06-22T07:58:05;101839.00;;;25.98;66.21
14343;BME280;7255;53.596;9.960;2023-06-22T08:00:33;101827.59;;;26.05;67.88
14343;BME280;7255;53.596;9.960;2023-06-22T08:03:01;101829.06;;;25.64;67.57
14343;BME280;7255;53.596;9.960;2023-06-22T08:05:28;101826.66;;;25.77;67.90
14343;BME280;7255;53.596;9.960;2023-06-22T08:07:55;101836.09;;;25.89;70.15
14343;BME280;7255;53.596;9.960;2023-06-22T08:10:21;101832.06;;;26.01;65.86
14343;BME280;7255;53.596;9.960;2023-06-22T08:12:47;101837.34;;;25.97;64.01
14343;BME280;7255;53.596;9.960;2023-06-22T08:15:14;101835.31;;;26.03;65.14
14343;BME280;7255;53.596;9.960;2023-06-22T08:17:40;101838.03;;;26.22;65.25
14343;BME280;7255;53.596;9.960;2023-06-22T08:20:10;101832.28;;;26.32;67.25
14343;BME280;7255;53.596;9.960;2023-06-22T08:22:37;101827.38;;;26.01;63.77
14343;BME280;7255;53.596;9.960;2023-06-22T08:25:04;101826.00;;;26.18;63.82
14343;BME280;7255;53.596;9.960;2023-06-22T08:27:31;101819.81;;;25.93;64.23
14343;BME280;7255;53.596;9.960;2023-06-22T08:29:57;101822.91;;;26.05;65.85
14343;BME280;7255;53.596;9.960;2023-06-22T08:32:24;101812.72;;;26.20;65.48
14343;BME280;7255;53.596;9.960;2023-06-22T08:34:51;101817.00;;;26.26;63.52
14343;BME280;7255;53.596;9.960;2023-06-22T08:37:19;101818.34;;;25.82;62.34
14343;BME280;7255;53.596;9.960;2023-06-22T08:39:45;101811.81;;;25.91;63.21
14343;BME280;7255;53.596;9.960;2023-06-22T08:42:12;101819.44;;;26.13;68.11
14343;BME280;7255;53.596;9.960;2023-06-22T08:44:38;101823.84;;;26.15;64.63
14343;BME280;7255;53.596;9.960;2023-06-22T08:47:05;101822.31;;;26.22;61.74
14343;BME280;7255;53.596;9.960;2023-06-22T08:49:31;101816.19;;;26.25;60.58
14343;BME280;7255;53.596;9.960;2023-06-22T08:51:58;101811.16;;;26.13;61.51
14343;BME280;7255;53.596;9.960;2023-06-22T08:54:25;101804.31;;;25.97;65.70
14343;BME280;7255;53.596;9.960;2023-06-22T08:56:51;101799.34;;;25.66;63.89
14343;BME280;7255;53.596;9.960;2023-06-22T08:59:18;101797.84;;;25.55;64.41
14343;BME280;7255;53.596;9.960;2023-06-22T09:01:44;101794.00;;;25.56;64.08
14343;BME280;7255;53.596;9.960;2023-06-22T09:04:14;101791.75;;;25.58;63.99
14343;BME280;7255;53.596;9.960;2023-06-22T09:06:40;101802.19;;;25.61;63.23
14343;BME280;7255;53.596;9.960;2023-06-22T09:09:10;101788.94;;;25.63;64.66
14343;BME280;7255;53.596;9.960;2023-06-22T09:11:37;101794.44;;;25.63;62.59
14343;BME280;7255;53.596;9.960;2023-06-22T09:14:04;101786.25;;;25.58;60.87
14343;BME280;7255;53.596;9.960;2023-06-22T09:16:30;101786.03;;;25.54;60.17
14343;BME280;7255;53.596;9.960;2023-06-22T09:18:56;101783.66;;;25.67;63.87
14343;BME280;7255;53.596;9.960;2023-06-22T09:21:23;101781.66;;;25.86;64.65
14343;BME280;7255;53.596;9.960;2023-06-22T09:23:49;101779.03;;;25.95;62.52
14343;BME280;7255;53.596;9.960;2023-06-22T09:26:16;101770.09;;;26.03;65.41
14343;BME280;7255;53.596;9.960;2023-06-22T09:28:44;101769.22;;;25.89;61.91
14343;BME280;7255;53.596;9.960;2023-06-22T09:31:10;101774.94;;;26.06;64.99
14343;BME280;7255;53.596;9.960;2023-06-22T09:33:37;101766.41;;;26.22;62.85
14343;BME280;7255;53.596;9.960;2023-06-22T09:36:04;101762.72;;;26.26;62.93
14343;BME280;7255;53.596;9.960;2023-06-22T09:38:34;101769.06;;;26.41;63.51
14343;BME280;7255;53.596;9.960;2023-06-22T09:41:00;101762.13;;;26.43;61.72
14343;BME280;7255;53.596;9.960;2023-06-22T09:43:27;101758.63;;;26.51;60.61
14343;BME280;7255;53.596;9.960;2023-06-22T09:45:55;101759.44;;;26.52;61.73
14343;BME280;7255;53.596;9.960;2023-06-22T09:48:21;101736.59;;;26.51;59.63
14343;BME280;7255;53.596;9.960;2023-06-22T09:50:48;101745.34;;;26.54;59.26
14343;BME280;7255;53.596;9.960;2023-06-22T09:53:14;101746.19;;;26.68;61.29
14343;BME280;7255;53.596;9.960;2023-06-22T09:55:40;101746.38;;;26.72;60.95
14343;BME280;7255;53.596;9.960;2023-06-22T09:58:07;101751.69;;;26.82;60.36
14343;BME280;7255;53.596;9.960;2023-06-22T10:00:34;101754.09;;;26.83;60.08
14343;BME280;7255;53.596;9.960;2023-06-22T10:03:02;101751.44;;;26.92;57.53
14343;BME280;7255;53.596;9.960;2023-06-22T10:05:28;101746.88;;;27.10;59.71
14343;BME280;7255;53.596;9.960;2023-06-22T10:07:55;101745.59;;;27.16;56.63
14343;BME280;7255;53.596;9.960;2023-06-22T10:10:21;101745.59;;;27.16;58.93
14343;BME280;7255;53.596;9.960;2023-06-22T10:12:54;101741.06;;;27.34;57.70
14343;BME280;7255;53.596;9.960;2023-06-22T10:15:21;101740.72;;;27.58;58.28
14343;BME280;7255;53.596;9.960;2023-06-22T10:17:47;101740.03;;;27.53;56.20
14343;BME280;7255;53.596;9.960;2023-06-22T10:20:15;101732.59;;;27.53;55.43
14343;BME280;7255;53.596;9.960;2023-06-22T10:22:44;101733.84;;;27.78;56.63
14343;BME280;7255;53.596;9.960;2023-06-22T10:25:12;101737.84;;;27.95;55.93
14343;BME280;7255;53.596;9.960;2023-06-22T10:27:39;101731.25;;;28.05;54.40
14343;BME280;7255;53.596;9.960;2023-06-22T10:30:06;101729.75;;;27.98;53.77
14343;BME280;7255;53.596;9.960;2023-06-22T10:32:33;101732.50;;;27.90;55.33
14343;BME280;7255;53.596;9.960;2023-06-22T10:34:59;101725.84;;;27.99;56.70
14343;BME280;7255;53.596;9.960;2023-06-22T10:37:27;101729.78;;;27.76;53.25
14343;BME280;7255;53.596;9.960;2023-06-22T10:39:53;101716.41;;;27.60;54.04
14343;BME280;7255;53.596;9.960;2023-06-22T10:42:20;101721.81;;;27.74;55.87
14343;BME280;7255;53.596;9.960;2023-06-22T10:44:46;101714.84;;;27.77;53.94
14343;BME280;7255;53.596;9.960;2023-06-22T10:47:12;101714.66;;;28.05;55.86
14343;BME280;7255;53.596;9.960;2023-06-22T10:49:39;101712.56;;;28.10;53.82
14343;BME280;7255;53.596;9.960;2023-06-22T10:52:06;101699.91;;;28.18;55.25
14343;BME280;7255;53.596;9.960;2023-06-22T10:54:35;101712.09;;;28.17;53.74
14343;BME280;7255;53.596;9.960;2023-06-22T10:57:01;101700.41;;;28.20;53.61
14343;BME280;7255;53.596;9.960;2023-06-22T10:59:28;101700.69;;;28.10;54.12
14343;BME280;7255;53.596;9.960;2023-06-22T11:01:54;101697.00;;;28.23;53.12
14343;BME280;7255;53.596;9.960;2023-06-22T11:04:21;101703.38;;;28.32;55.17
14343;BME280;7255;53.596;9.960;2023-06-22T11:06:47;101688.63;;;28.54;53.78
14343;BME280;7255;53.596;9.960;2023-06-22T11:09:14;101688.06;;;28.26;52.65
14343;BME280;7255;53.596;9.960;2023-06-22T11:11:45;101689.34;;;28.20;55.50
14343;BME280;7255;53.596;9.960;2023-06-22T11:14:11;101682.13;;;28.59;55.39
14343;BME280;7255;53.596;9.960;2023-06-22T11:16:37;101683.56;;;28.83;51.27
14343;BME280;7255;53.596;9.960;2023-06-22T11:19:04;101687.16;;;29.09;52.93
14343;BME280;7255;53.596;9.960;2023-06-22T11:21:31;101688.75;;;29.10;50.81
14343;BME280;7255;53.596;9.960;2023-06-22T11:23:58;101681.94;;;28.99;51.33
14343;BME280;7255;53.596;9.960;2023-06-22T11:26:25;101677.37;;;29.21;54.08
14343;BME280;7255;53.596;9.960;2023-06-22T11:28:53;101674.44;;;29.26;50.54
14343;BME280;7255;53.596;9.960;2023-06-22T11:31:20;101669.88;;;29.12;51.60
14343;BME280;7255;53.596;9.960;2023-06-22T11:33:46;101664.50;;;29.33;50.23
14343;BME280;7255;53.596;9.960;2023-06-22T11:36:14;101677.72;;;29.66;51.86
14343;BME280;7255;53.596;9.960;2023-06-22T11:38:40;101668.88;;;29.82;49.49
14343;BME280;7255;53.596;9.960;2023-06-22T11:41:07;101667.84;;;29.56;51.82
14343;BME280;7255;53.596;9.960;2023-06-22T11:43:33;101672.41;;;29.52;51.25
14343;BME280;7255;53.596;9.960;2023-06-22T11:46:03;101675.28;;;29.65;50.64
14343;BME280;7255;53.596;9.960;2023-06-22T11:48:29;101665.69;;;29.62;51.54
14343;BME280;7255;53.596;9.960;2023-06-22T11:50:56;101660.59;;;29.73;49.94
14343;BME280;7255;53.596;9.960;2023-06-22T11:53:26;101665.16;;;29.69;52.39
14343;BME280;7255;53.596;9.960;2023-06-22T11:55:53;101661.88;;;29.84;52.01
14343;BME280;7255;53.596;9.960;2023-06-22T11:58:20;101654.97;;;30.20;52.97
14343;BME280;7255;53.596;9.960;2023-06-22T12:00:47;101659.12;;;30.56;50.25
14343;BME280;7255;53.596;9.960;2023-06-22T12:03:14;101650.94;;;29.49;49.60
14343;BME280;7255;53.596;9.960;2023-06-22T12:05:41;101652.34;;;29.64;49.39
14343;BME280;7255;53.596;9.960;2023-06-22T12:08:08;101644.63;;;30.08;50.14
14343;BME280;7255;53.596;9.960;2023-06-22T12:10:34;101633.97;;;30.40;50.61
14343;BME280;7255;53.596;9.960;2023-06-22T12:13:01;101637.31;;;30.88;48.15
14343;BME280;7255;53.596;9.960;2023-06-22T12:15:27;101644.13;;;31.24;47.08
14343;BME280;7255;53.596;9.960;2023-06-22T12:17:53;101631.41;;;31.23;47.68
14343;BME280;7255;53.596;9.960;2023-06-22T12:20:21;101622.38;;;31.14;46.89
14343;BME280;7255;53.596;9.960;2023-06-22T12:22:47;101626.06;;;31.05;45.64
14343;BME280;7255;53.596;9.960;2023-06-22T12:25:16;101625.59;;;31.16;46.17
14343;BME280;7255;53.596;9.960;2023-06-22T12:27:42;101615.91;;;31.09;48.30
14343;BME280;7255;53.596;9.960;2023-06-22T12:30:09;101608.72;;;30.96;46.38
14343;BME280;7255;53.596;9.960;2023-06-22T12:32:35;101610.09;;;31.02;49.29
14343;BME280;7255;53.596;9.960;2023-06-22T12:35:02;101610.16;;;31.27;47.07
14343;BME280;7255;53.596;9.960;2023-06-22T12:37:30;101610.84;;;31.24;47.07
14343;BME280;7255;53.596;9.960;2023-06-22T12:39:57;101615.12;;;31.34;46.98
14343;BME280;7255;53.596;9.960;2023-06-22T12:42:24;101615.78;;;31.06;45.97
14343;BME280;7255;53.596;9.960;2023-06-22T12:44:51;101611.28;;;31.14;44.98
14343;BME280;7255;53.596;9.960;2023-06-22T12:47:17;101611.41;;;31.30;46.23
14343;BME280;7255;53.596;9.960;2023-06-22T12:49:45;101610.03;;;31.23;45.43
14343;BME280;7255;53.596;9.960;2023-06-22T12:52:11;101603.72;;;31.48;47.21
14343;BME280;7255;53.596;9.960;2023-06-22T12:54:39;101596.09;;;31.57;45.75